Time;durP1;ratioP1;P1;durP2;ratioP2;P2;SDS_P1;SDS_P2;PMS_P1;PMS_P2;Temp;Humidity;BMP_temperature;BMP_pressure;BME280_temperature;BME280_humidity;BME280_pressure;Samples;Min_cycle;Max_cycle;Signal;HPM_P1;HPM_P2
2022/02/20 00:00:46;;;;;;;31.25;7.68;;;8.40;99.90;;;;;;5095627;28;20059;-73
2022/02/20 00:03:12;;;;;;;33.22;6.55;;;8.40;99.90;;;;;;5095574;28;20023;-71
2022/02/20 00:05:38;;;;;;;28.58;6.07;;;8.30;99.90;;;;;;5095135;28;20048;-72
2022/02/20 00:08:04;;;;;;;27.65;6.38;;;8.30;99.90;;;;;;5095439;28;20031;-72
2022/02/20 00:10:30;;;;;;;28.00;7.88;;;8.30;99.90;;;;;;5095400;28;20031;-72
2022/02/20 00:12:57;;;;;;;31.75;6.50;;;8.30;99.90;;;;;;5095430;28;20024;-71
2022/02/20 00:15:24;;;;;;;36.22;6.88;;;8.30;99.90;;;;;;5095272;28;20016;-71
2022/02/20 00:17:50;;;;;;;32.33;6.00;;;8.40;99.90;;;;;;5095356;28;20053;-72
2022/02/20 00:20:18;;;;;;;26.80;5.32;;;8.40;99.90;;;;;;5095534;28;20031;-70
2022/02/20 00:22:43;;;;;;;32.47;6.78;;;8.40;99.90;;;;;;5095466;28;20462;-72
2022/02/20 00:25:09;;;;;;;30.15;6.40;;;8.30;99.90;;;;;;5095391;28;20028;-72
2022/02/20 00:27:35;;;;;;;25.42;6.25;;;8.20;99.90;;;;;;5095051;28;20494;-71
2022/02/20 00:30:01;;;;;;;24.80;6.15;;;8.20;99.90;;;;;;5095059;28;20039;-71
2022/02/20 00:32:26;;;;;;;31.10;6.65;;;8.30;99.90;;;;;;5095524;28;20028;-72
2022/02/20 00:34:52;;;;;;;22.67;5.20;;;8.50;99.90;;;;;;5095136;28;20024;-72
2022/02/20 00:37:18;;;;;;;28.80;6.10;;;8.60;99.90;;;;;;5094922;28;20028;-72
2022/02/20 00:39:43;;;;;;;28.15;5.93;;;8.70;99.90;;;;;;5094809;28;20022;-71
2022/02/20 00:42:09;;;;;;;25.02;6.50;;;8.60;99.90;;;;;;5094784;28;20402;-70
2022/02/20 00:44:35;;;;;;;25.48;4.97;;;8.50;99.90;;;;;;5093427;28;20478;-69
2022/02/20 00:47:00;;;;;;;24.30;6.20;;;8.40;99.90;;;;;;5094949;28;20028;-68
2022/02/20 00:49:26;;;;;;;25.80;4.95;;;8.30;99.90;;;;;;5095260;28;20031;-69
2022/02/20 00:51:52;;;;;;;25.58;5.18;;;8.30;99.90;;;;;;5094580;28;20024;-69
2022/02/20 00:54:17;;;;;;;19.92;5.00;;;8.20;99.90;;;;;;5094451;28;20103;-69
2022/02/20 00:56:43;;;;;;;22.85;4.88;;;8.10;99.90;;;;;;5094503;28;20106;-68
2022/02/20 00:59:08;;;;;;;22.80;4.32;;;8.10;99.90;;;;;;5094463;28;20139;-70
2022/02/20 01:01:34;;;;;;;26.73;4.50;;;8.00;99.90;;;;;;5094698;28;20055;-69
2022/02/20 01:04:00;;;;;;;24.05;5.28;;;8.10;99.90;;;;;;5094204;28;20055;-69
2022/02/20 01:06:26;;;;;;;27.85;6.40;;;8.10;99.90;;;;;;5094377;28;20020;-69
2022/02/20 01:08:53;;;;;;;29.70;5.93;;;8.00;99.90;;;;;;5094362;28;20012;-70
2022/02/20 01:11:19;;;;;;;17.20;5.30;;;7.90;99.90;;;;;;5094267;28;20028;-70
2022/02/20 01:13:46;;;;;;;22.10;5.18;;;7.90;99.90;;;;;;5094217;28;20024;-69
2022/02/20 01:16:12;;;;;;;24.15;4.38;;;7.80;99.90;;;;;;5094094;28;20054;-72
2022/02/20 01:18:38;;;;;;;24.63;6.57;;;7.90;99.90;;;;;;5094143;28;20021;-71
2022/02/20 01:21:04;;;;;;;22.08;4.82;;;7.80;99.90;;;;;;5094098;28;20115;-71
2022/02/20 01:23:29;;;;;;;20.40;4.30;;;7.90;99.90;;;;;;5092774;28;20115;-72
2022/02/20 01:25:55;;;;;;;20.85;4.63;;;7.90;99.90;;;;;;5094032;28;20024;-72
2022/02/20 01:28:21;;;;;;;27.33;5.38;;;7.80;99.90;;;;;;5093912;28;20029;-72
2022/02/20 01:30:47;;;;;;;29.33;5.43;;;7.80;99.90;;;;;;5093875;28;20056;-72
2022/02/20 01:33:13;;;;;;;22.42;5.13;;;7.80;99.90;;;;;;5093873;28;20028;-71
2022/02/20 01:35:38;;;;;;;25.50;4.13;;;7.80;99.90;;;;;;5094030;28;20031;-72
2022/02/20 01:38:04;;;;;;;26.58;4.78;;;7.80;99.90;;;;;;5094343;28;20016;-71
2022/02/20 01:40:30;;;;;;;23.40;4.05;;;7.90;99.90;;;;;;5093800;28;20043;-71
2022/02/20 01:43:00;;;;;;;25.70;4.30;;;7.90;99.90;;;;;;5093779;28;20091;-71
2022/02/20 01:45:27;;;;;;;27.43;5.43;;;7.90;99.90;;;;;;5092468;28;20028;-72
2022/02/20 01:47:53;;;;;;;19.20;4.53;;;8.00;99.90;;;;;;5093662;28;20605;-70
2022/02/20 01:50:19;;;;;;;32.35;5.55;;;8.10;99.90;;;;;;5093873;28;20068;-71
2022/02/20 01:52:46;;;;;;;25.38;4.47;;;8.00;99.90;;;;;;5093538;28;20397;-70
2022/02/20 01:55:13;;;;;;;23.90;5.65;;;8.00;99.90;;;;;;5093685;28;20042;-70
2022/02/20 01:57:40;;;;;;;26.92;5.15;;;8.00;99.90;;;;;;5093501;28;20020;-71
2022/02/20 02:00:10;;;;;;;26.80;4.72;;;8.00;99.90;;;;;;5093489;28;20429;-70
2022/02/20 02:02:36;;;;;;;25.55;4.57;;;8.10;99.90;;;;;;5091571;28;20111;-71
2022/02/20 02:05:03;;;;;;;23.63;4.80;;;8.30;99.90;;;;;;5093202;28;20082;-71
2022/02/20 02:07:29;;;;;;;21.38;4.97;;;8.30;99.90;;;;;;5092399;28;20024;-71
2022/02/20 02:09:55;;;;;;;25.30;4.68;;;8.30;99.90;;;;;;5093643;28;20024;-72
2022/02/20 02:12:21;;;;;;;23.30;4.00;;;8.30;99.90;;;;;;5093297;28;20024;-72
2022/02/20 02:14:53;;;;;;;24.45;4.68;;;8.30;99.90;;;;;;5093241;28;20028;-73
2022/02/20 02:17:19;;;;;;;31.40;5.45;;;8.20;99.90;;;;;;5093211;28;20024;-72
2022/02/20 02:19:44;;;;;;;26.65;5.30;;;8.20;99.90;;;;;;5093257;28;20024;-72
2022/02/20 02:22:10;;;;;;;26.27;6.13;;;8.30;99.90;;;;;;5093217;28;20405;-73
2022/02/20 02:24:36;;;;;;;23.98;5.03;;;8.40;99.90;;;;;;5093249;28;20028;-71
2022/02/20 02:27:03;;;;;;;26.10;4.78;;;8.50;99.90;;;;;;5093158;28;20032;-73
2022/02/20 02:29:29;;;;;;;23.73;4.47;;;8.50;99.90;;;;;;5093159;28;20103;-73
2022/02/20 02:31:55;;;;;;;24.10;4.82;;;8.50;99.90;;;;;;5093134;28;20103;-71
2022/02/20 02:34:21;;;;;;;19.55;4.45;;;8.50;99.90;;;;;;5093038;28;20024;-71
2022/02/20 02:36:49;;;;;;;21.75;4.57;;;8.50;99.90;;;;;;5093344;28;20032;-71
2022/02/20 02:39:15;;;;;;;30.33;5.72;;;8.50;99.90;;;;;;5091749;28;20012;-71
2022/02/20 02:41:41;;;;;;;27.95;4.93;;;8.70;99.90;;;;;;5093056;28;20459;-71
2022/02/20 02:44:07;;;;;;;32.63;4.57;;;8.80;99.90;;;;;;5093594;28;20044;-71
2022/02/20 02:46:33;;;;;;;28.30;5.30;;;8.90;99.90;;;;;;5093273;28;20493;-72
2022/02/20 02:49:00;;;;;;;22.30;5.43;;;9.00;99.90;;;;;;5092927;28;20020;-71
2022/02/20 02:51:26;;;;;;;21.98;4.72;;;9.00;99.90;;;;;;5092990;28;20020;-71
2022/02/20 02:53:54;;;;;;;19.17;4.82;;;9.00;99.90;;;;;;5093354;28;20040;-70
2022/02/20 02:56:20;;;;;;;26.02;5.03;;;8.90;99.90;;;;;;5093128;28;20111;-72
2022/02/20 02:58:46;;;;;;;18.95;3.90;;;9.00;99.90;;;;;;5093488;28;20023;-72
2022/02/20 03:01:12;;;;;;;23.95;5.25;;;9.00;99.90;;;;;;5093168;28;20103;-71
2022/02/20 03:03:38;;;;;;;24.10;5.32;;;9.00;99.90;;;;;;5092899;28;20477;-71
2022/02/20 03:06:12;;;;;;;22.70;4.65;;;8.90;99.90;;;;;;5092840;28;20116;-70
2022/02/20 03:08:38;;;;;;;23.50;4.50;;;8.80;99.90;;;;;;5093716;28;20020;-71
2022/02/20 03:11:04;;;;;;;22.42;6.57;;;8.80;99.90;;;;;;5092827;28;20122;-71
2022/02/20 03:13:31;;;;;;;24.42;5.43;;;8.80;99.90;;;;;;5093736;28;20020;-69
2022/02/20 03:15:58;;;;;;;32.15;5.20;;;8.70;99.90;;;;;;5096451;28;20110;-69
2022/02/20 03:18:24;;;;;;;17.20;4.47;;;8.70;99.90;;;;;;5096446;28;20020;-70
2022/02/20 03:20:50;;;;;;;19.98;3.53;;;8.60;99.90;;;;;;5096989;28;20031;-69
2022/02/20 03:23:15;;;;;;;27.98;4.78;;;8.60;99.90;;;;;;5096349;28;20024;-69
2022/02/20 03:25:41;;;;;;;29.10;5.07;;;8.80;99.90;;;;;;5096333;28;20031;-70
2022/02/20 03:28:07;;;;;;;20.83;4.15;;;8.80;99.90;;;;;;5096258;28;20426;-71
2022/02/20 03:30:33;;;;;;;20.70;4.05;;;8.90;99.90;;;;;;5096265;28;20151;-72
2022/02/20 03:32:59;;;;;;;20.40;3.75;;;8.80;99.90;;;;;;5096532;28;20114;-73
2022/02/20 03:35:25;;;;;;;21.77;4.28;;;8.70;99.90;;;;;;5096356;28;20028;-72
2022/02/20 03:37:51;;;;;;;20.05;4.35;;;8.70;99.90;;;;;;5096621;28;20094;-71
2022/02/20 03:40:17;;;;;;;32.58;5.07;;;8.80;99.90;;;;;;5096286;28;20421;-72
2022/02/20 03:42:42;;;;;;;24.50;4.53;;;8.80;99.90;;;;;;5095963;28;20012;-71
2022/02/20 03:45:09;;;;;;;25.10;3.97;;;8.90;99.90;;;;;;5094633;28;20036;-72
2022/02/20 03:47:34;;;;;;;19.92;4.03;;;8.90;99.90;;;;;;5095962;28;20405;-71
2022/02/20 03:50:00;;;;;;;22.90;4.05;;;9.00;99.90;;;;;;5094571;28;20194;-72
2022/02/20 03:52:26;;;;;;;25.33;4.78;;;9.10;99.90;;;;;;5095795;28;20020;-71
2022/02/20 03:54:51;;;;;;;24.67;4.43;;;9.10;99.90;;;;;;5095649;28;20474;-70
2022/02/20 03:57:17;;;;;;;23.75;4.38;;;9.20;99.90;;;;;;5096230;28;20023;-71
2022/02/20 03:59:42;;;;;;;19.42;4.05;;;9.20;99.90;;;;;;5095663;28;20020;-72
2022/02/20 04:02:08;;;;;;;23.75;4.20;;;9.30;99.90;;;;;;5095885;28;20022;-71
2022/02/20 04:04:34;;;;;;;21.50;4.68;;;9.30;99.90;;;;;;5095515;28;20181;-72
2022/02/20 04:07:00;;;;;;;28.70;4.43;;;9.40;99.90;;;;;;5095506;28;20024;-73
2022/02/20 04:09:25;;;;;;;20.13;4.30;;;9.40;99.90;;;;;;5096043;28;20032;-71
2022/02/20 04:11:51;;;;;;;23.67;3.60;;;9.40;99.90;;;;;;5095412;28;20028;-71
2022/02/20 04:14:17;;;;;;;22.10;4.60;;;9.40;99.90;;;;;;5095374;28;20056;-73
2022/02/20 04:16:43;;;;;;;25.15;4.72;;;9.40;99.90;;;;;;5095329;28;20443;-70
2022/02/20 04:19:09;;;;;;;30.70;4.65;;;9.40;99.90;;;;;;5095317;28;20477;-71
2022/02/20 04:21:35;;;;;;;23.80;5.10;;;9.50;99.90;;;;;;5095514;28;20012;-72
2022/02/20 04:24:00;;;;;;;18.85;4.40;;;9.50;99.90;;;;;;5095180;28;20035;-71
2022/02/20 04:26:26;;;;;;;17.27;4.15;;;9.50;99.90;;;;;;5094497;28;20020;-70
2022/02/20 04:28:52;;;;;;;20.02;4.47;;;9.50;99.90;;;;;;5095099;28;20053;-72
2022/02/20 04:31:18;;;;;;;23.92;4.20;;;9.40;99.90;;;;;;5095114;28;20024;-72
2022/02/20 04:33:45;;;;;;;26.60;4.78;;;9.50;99.90;;;;;;5093680;28;20032;-70
2022/02/20 04:36:11;;;;;;;21.08;5.63;;;9.50;99.90;;;;;;5093608;28;20624;-69
2022/02/20 04:38:37;;;;;;;23.70;4.63;;;9.60;99.90;;;;;;5094936;28;20024;-69
2022/02/20 04:41:03;;;;;;;23.33;4.65;;;9.70;99.90;;;;;;5094859;28;20023;-67
2022/02/20 04:43:29;;;;;;;17.98;3.45;;;9.80;99.90;;;;;;5095099;28;20034;-68
2022/02/20 04:45:54;;;;;;;22.80;3.80;;;9.90;99.90;;;;;;5095023;28;20111;-70
2022/02/20 04:48:20;;;;;;;18.17;3.90;;;9.90;99.90;;;;;;5095250;28;20032;-69
2022/02/20 04:50:46;;;;;;;21.92;3.92;;;10.00;99.90;;;;;;5094976;28;20074;-71
2022/02/20 04:53:12;;;;;;;26.42;4.35;;;10.00;99.90;;;;;;5094736;28;20024;-70
2022/02/20 04:55:37;;;;;;;28.27;4.88;;;10.00;99.90;;;;;;5094390;28;20389;-68
2022/02/20 04:58:03;;;;;;;20.50;4.25;;;10.00;99.90;;;;;;5094509;28;20543;-69
2022/02/20 05:00:29;;;;;;;23.40;4.18;;;10.10;99.90;;;;;;5094515;28;20099;-68
2022/02/20 05:02:55;;;;;;;22.70;5.35;;;10.10;99.90;;;;;;5094463;28;20462;-68
2022/02/20 05:05:20;;;;;;;22.02;4.60;;;10.10;99.90;;;;;;5094204;28;20101;-68
2022/02/20 05:07:46;;;;;;;24.95;4.28;;;10.00;99.90;;;;;;5094313;28;20020;-68
2022/02/20 05:10:12;;;;;;;20.75;4.85;;;10.00;99.90;;;;;;5094281;28;20031;-68
2022/02/20 05:12:37;;;;;;;24.13;4.32;;;10.00;99.90;;;;;;5094520;28;20032;-68
2022/02/20 05:15:03;;;;;;;21.25;4.40;;;10.00;99.90;;;;;;5094151;28;20027;-70
2022/02/20 05:17:29;;;;;;;21.40;5.03;;;10.00;99.90;;;;;;5094748;28;20032;-70
2022/02/20 05:19:55;;;;;;;21.20;3.88;;;10.00;99.90;;;;;;5094160;28;20521;-70
2022/02/20 05:22:21;;;;;;;22.48;7.07;;;10.00;99.90;;;;;;5094106;28;20395;-68
2022/02/20 05:24:47;;;;;;;16.92;4.10;;;10.00;99.90;;;;;;5094037;28;20020;-70
2022/02/20 05:27:13;;;;;;;17.33;3.70;;;9.90;99.90;;;;;;5093953;28;20023;-69
2022/02/20 05:29:38;;;;;;;21.75;4.70;;;9.90;99.90;;;;;;5094212;28;20474;-69
2022/02/20 05:32:04;;;;;;;21.90;3.50;;;9.90;99.90;;;;;;5094146;28;20036;-70
2022/02/20 05:34:30;;;;;;;21.67;4.05;;;9.90;99.90;;;;;;5094036;28;20038;-69
2022/02/20 05:36:56;;;;;;;21.38;3.88;;;9.90;99.90;;;;;;5093207;28;20027;-67
2022/02/20 05:39:21;;;;;;;18.25;5.10;;;9.90;99.90;;;;;;5094039;28;20020;-68
2022/02/20 05:41:48;;;;;;;19.63;4.45;;;9.90;99.90;;;;;;5094052;28;20031;-68
2022/02/20 05:44:13;;;;;;;21.95;4.00;;;9.90;99.90;;;;;;5094299;28;20047;-68
2022/02/20 05:46:39;;;;;;;19.38;3.50;;;9.90;99.90;;;;;;5093668;28;20024;-69
2022/02/20 05:49:04;;;;;;;21.13;3.60;;;9.90;99.90;;;;;;5093639;28;20052;-70
2022/02/20 05:51:32;;;;;;;25.30;4.63;;;9.80;99.90;;;;;;5093925;28;20016;-69
2022/02/20 05:53:58;;;;;;;20.13;3.85;;;9.80;99.90;;;;;;5093512;28;20058;-69
2022/02/20 05:56:24;;;;;;;22.77;3.88;;;9.90;99.90;;;;;;5093506;28;20024;-69
2022/02/20 05:58:49;;;;;;;25.95;4.97;;;10.00;99.90;;;;;;5093510;28;20020;-70
2022/02/20 06:01:15;;;;;;;21.48;3.72;;;10.00;99.90;;;;;;5093472;28;20517;-69
2022/02/20 06:03:40;;;;;;;22.50;5.03;;;10.00;99.90;;;;;;5093224;28;20494;-69
2022/02/20 06:06:06;;;;;;;19.77;4.00;;;10.00;99.90;;;;;;5093749;28;20111;-68
2022/02/20 06:08:31;;;;;;;20.63;3.72;;;10.00;99.90;;;;;;5093394;28;20105;-69
2022/02/20 06:10:57;;;;;;;16.60;3.40;;;9.80;99.90;;;;;;5093655;28;20103;-71
2022/02/20 06:13:23;;;;;;;23.48;3.85;;;9.80;99.90;;;;;;5093347;28;20449;-68
2022/02/20 06:15:49;;;;;;;25.05;4.75;;;9.70;99.90;;;;;;5093465;28;20071;-69
2022/02/20 06:18:15;;;;;;;16.58;4.05;;;9.70;99.90;;;;;;5093547;28;20020;-67
2022/02/20 06:20:41;;;;;;;21.10;4.65;;;9.70;99.90;;;;;;5093547;28;20035;-69
2022/02/20 06:23:07;;;;;;;19.50;4.45;;;9.70;99.90;;;;;;5093203;28;20019;-70
2022/02/20 06:25:33;;;;;;;22.40;3.78;;;9.70;99.90;;;;;;5093225;28;20027;-70
2022/02/20 06:27:58;;;;;;;19.48;4.63;;;9.80;99.90;;;;;;5091920;28;20020;-69
2022/02/20 06:30:24;;;;;;;17.45;3.97;;;9.80;99.90;;;;;;5093410;28;20474;-68
2022/02/20 06:32:50;;;;;;;24.13;4.38;;;9.90;99.90;;;;;;5093203;28;20020;-68
2022/02/20 06:35:16;;;;;;;22.08;4.90;;;10.00;99.90;;;;;;5093071;28;20047;-70
2022/02/20 06:37:42;;;;;;;17.73;4.15;;;10.10;99.90;;;;;;5093635;28;20402;-68
2022/02/20 06:40:09;;;;;;;25.58;4.70;;;10.10;99.90;;;;;;5093059;28;20032;-70
2022/02/20 06:42:34;;;;;;;22.02;5.18;;;10.20;99.90;;;;;;5093365;28;20024;-68
2022/02/20 06:45:00;;;;;;;25.05;5.20;;;10.20;99.90;;;;;;5093064;28;20392;-68
2022/02/20 06:47:26;;;;;;;31.38;5.30;;;10.20;99.90;;;;;;5093016;28;20024;-69
2022/02/20 06:49:51;;;;;;;38.60;6.20;;;10.30;99.90;;;;;;5096225;28;20064;-70
2022/02/20 06:52:17;;;;;;;19.60;4.68;;;10.30;99.90;;;;;;5096991;28;20485;-69
2022/02/20 06:54:42;;;;;;;23.02;4.90;;;10.40;99.90;;;;;;5097022;28;20035;-70
2022/02/20 06:57:08;;;;;;;28.05;5.40;;;10.40;99.90;;;;;;5097150;28;20016;-70
2022/02/20 06:59:34;;;;;;;20.80;4.40;;;10.30;99.90;;;;;;5097090;28;20028;-68
2022/02/20 07:02:00;;;;;;;27.42;5.78;;;10.30;99.90;;;;;;5097049;28;20020;-67
2022/02/20 07:04:25;;;;;;;28.70;5.75;;;10.10;99.90;;;;;;5096676;28;20040;-70
2022/02/20 07:06:51;;;;;;;29.17;8.50;;;10.00;99.90;;;;;;5096965;28;20028;-70
2022/02/20 07:09:17;;;;;;;25.42;7.07;;;10.00;99.90;;;;;;5096977;28;20469;-70
2022/02/20 07:11:42;;;;;;;22.48;5.43;;;10.00;99.90;;;;;;5096657;28;20481;-69
2022/02/20 07:14:08;;;;;;;31.02;6.10;;;10.00;99.90;;;;;;5096577;28;20470;-69
2022/02/20 07:16:34;;;;;;;27.10;5.85;;;9.90;99.90;;;;;;5096454;28;20546;-68
2022/02/20 07:19:00;;;;;;;32.53;5.65;;;9.90;99.90;;;;;;5096513;28;20020;-70
2022/02/20 07:21:28;;;;;;;30.17;5.85;;;9.90;99.90;;;;;;5096446;28;20047;-68
2022/02/20 07:23:55;;;;;;;23.08;6.30;;;10.10;99.90;;;;;;5095101;28;20440;-69
2022/02/20 07:26:21;;;;;;;30.60;8.13;;;10.20;99.90;;;;;;5096367;28;20024;-69
2022/02/20 07:28:46;;;;;;;33.92;7.05;;;10.20;99.90;;;;;;5096571;28;20385;-69
2022/02/20 07:31:12;;;;;;;26.10;5.32;;;10.30;99.90;;;;;;5096210;28;20030;-70
2022/02/20 07:33:38;;;;;;;26.45;7.20;;;10.40;99.90;;;;;;5096220;28;20020;-69
2022/02/20 07:36:04;;;;;;;31.23;6.75;;;10.40;99.90;;;;;;5094822;28;20027;-68
2022/02/20 07:38:30;;;;;;;24.65;5.60;;;10.50;99.90;;;;;;5096151;28;20020;-71
2022/02/20 07:40:58;;;;;;;31.52;6.30;;;10.50;99.90;;;;;;5096034;28;20016;-70
2022/02/20 07:43:27;;;;;;;33.20;6.45;;;10.60;99.90;;;;;;5096014;28;20024;-69
2022/02/20 07:45:54;;;;;;;26.48;5.68;;;10.70;99.90;;;;;;5096216;28;20024;-69
2022/02/20 07:48:19;;;;;;;22.58;5.72;;;10.70;99.90;;;;;;5096507;28;20466;-69
2022/02/20 07:50:45;;;;;;;30.88;6.60;;;10.80;99.90;;;;;;5095890;28;20020;-70
2022/02/20 07:53:11;;;;;;;31.83;7.03;;;10.90;99.90;;;;;;5096085;28;20487;-70
2022/02/20 07:55:38;;;;;;;31.15;6.05;;;10.90;99.90;;;;;;5095860;28;20020;-68
2022/02/20 07:58:07;;;;;;;28.92;6.82;;;11.00;99.90;;;;;;5095765;28;20047;-67
2022/02/20 08:00:33;;;;;;;29.48;6.68;;;11.10;99.90;;;;;;5094613;28;20016;-69
2022/02/20 08:03:00;;;;;;;28.27;5.53;;;11.20;99.90;;;;;;5095643;28;20375;-68
2022/02/20 08:05:26;;;;;;;29.02;7.88;;;11.20;99.90;;;;;;5095210;28;20044;-68
2022/02/20 08:07:52;;;;;;;27.67;7.72;;;11.30;99.90;;;;;;5095500;28;20034;-68
2022/02/20 08:10:18;;;;;;;29.58;8.15;;;11.40;99.90;;;;;;5095517;28;20099;-67
2022/02/20 08:12:44;;;;;;;28.48;6.45;;;11.50;99.90;;;;;;5095777;28;20096;-69
2022/02/20 08:15:10;;;;;;;26.23;6.10;;;11.60;99.90;;;;;;5095397;28;20442;-68
2022/02/20 08:17:46;;;;;;;34.05;7.05;;;11.70;99.90;;;;;;5095898;28;20031;-71
2022/02/20 08:20:13;;;;;;;38.70;8.90;;;11.90;99.90;;;;;;5095862;28;20531;-70
2022/02/20 08:22:39;;;;;;;30.77;8.10;;;12.10;99.90;;;;;;5095280;28;20367;-69
2022/02/20 08:25:05;;;;;;;30.90;6.93;;;12.20;99.90;;;;;;5095225;28;20076;-68
2022/02/20 08:27:35;;;;;;;32.42;6.72;;;12.20;99.90;;;;;;5095653;28;20466;-70
2022/02/20 08:30:03;;;;;;;29.90;6.47;;;12.40;99.90;;;;;;5095118;28;20035;-70
2022/02/20 08:32:29;;;;;;;35.05;7.18;;;12.50;99.90;;;;;;5095042;28;20020;-71
2022/02/20 08:34:54;;;;;;;29.90;5.85;;;12.60;99.90;;;;;;5095248;28;20456;-70
2022/02/20 08:37:20;;;;;;;30.58;6.85;;;12.90;99.90;;;;;;5094979;28;20096;-69
2022/02/20 08:39:46;;;;;;;27.48;6.20;;;12.90;99.90;;;;;;5094910;28;20047;-70
2022/02/20 08:42:11;;;;;;;23.08;5.53;;;13.10;99.90;;;;;;5094879;28;20389;-70
2022/02/20 08:44:37;;;;;;;29.55;6.13;;;13.30;99.90;;;;;;5094823;28;20524;-71
2022/02/20 08:47:04;;;;;;;26.50;5.80;;;13.30;99.90;;;;;;5094818;28;20050;-71
2022/02/20 08:49:30;;;;;;;29.48;6.38;;;13.20;99.90;;;;;;5095306;28;20024;-69
2022/02/20 08:51:55;;;;;;;28.73;8.40;;;13.30;99.90;;;;;;5094691;28;20432;-70
2022/02/20 08:54:21;;;;;;;30.90;6.40;;;14.00;99.90;;;;;;5094525;28;20036;-71
2022/02/20 08:56:47;;;;;;;29.13;6.90;;;14.90;99.90;;;;;;5094665;28;20405;-69
2022/02/20 08:59:13;;;;;;;27.42;5.95;;;17.00;99.90;;;;;;5094514;28;20031;-70
2022/02/20 09:01:39;;;;;;;17.65;4.78;;;17.60;99.90;;;;;;5094727;28;20021;-69
2022/02/20 09:04:04;;;;;;;19.92;5.30;;;18.00;99.90;;;;;;5094597;28;20040;-70
2022/02/20 09:06:34;;;;;;;28.25;6.80;;;18.40;99.90;;;;;;5094739;28;20099;-71
2022/02/20 09:09:00;;;;;;;20.55;5.03;;;18.50;99.90;;;;;;5094388;28;20038;-70
2022/02/20 09:11:28;;;;;;;29.15;12.98;;;18.40;99.90;;;;;;5094082;28;20078;-71
2022/02/20 09:13:53;;;;;;;28.73;9.63;;;19.10;99.90;;;;;;5094242;28;20428;-69
2022/02/20 09:16:19;;;;;;;25.20;7.65;;;18.60;99.90;;;;;;5094428;28;20026;-72
2022/02/20 09:18:45;;;;;;;19.27;5.57;;;19.60;99.90;;;;;;5092942;28;20021;-72
2022/02/20 09:21:11;;;;;;;19.38;5.60;;;20.40;99.90;;;;;;5094102;28;20413;-70
2022/02/20 09:23:37;;;;;;;23.55;6.90;;;21.20;99.90;;;;;;5094339;28;20351;-70
2022/02/20 09:26:04;;;;;;;19.30;5.18;;;22.00;99.90;;;;;;5093969;28;20028;-70
2022/02/20 09:28:30;;;;;;;20.60;5.68;;;22.50;99.90;;;;;;5094026;28;20060;-70
2022/02/20 09:30:56;;;;;;;21.92;6.30;;;22.10;99.90;;;;;;5093918;28;20024;-69
2022/02/20 09:33:21;;;;;;;24.55;5.63;;;21.90;99.90;;;;;;5094189;28;20541;-71
2022/02/20 09:35:47;;;;;;;18.85;5.90;;;21.80;99.90;;;;;;5093821;28;20417;-69
2022/02/20 09:38:13;;;;;;;17.48;5.75;;;22.10;99.90;;;;;;5092357;28;20030;-71
2022/02/20 09:40:39;;;;;;;18.60;5.82;;;22.30;99.90;;;;;;5093794;28;20095;-72
2022/02/20 09:43:04;;;;;;;22.38;5.85;;;21.80;99.90;;;;;;5093740;28;20074;-72
2022/02/20 09:45:31;;;;;;;18.98;4.93;;;21.30;99.90;;;;;;5094056;28;20032;-73
2022/02/20 09:48:02;;;;;;;15.60;5.68;;;21.60;99.90;;;;;;5094207;28;20032;-72
2022/02/20 09:50:28;;;;;;;14.40;5.57;;;22.10;99.90;;;;;;5093933;28;20077;-73
2022/02/20 09:52:54;;;;;;;21.15;6.03;;;22.40;99.90;;;;;;5093857;28;20059;-73
2022/02/20 09:55:20;;;;;;;21.48;5.93;;;23.60;99.20;;;;;;5093410;28;20020;-73
2022/02/20 09:57:46;;;;;;;17.10;5.57;;;24.20;98.10;;;;;;5093488;28;20420;-73
2022/02/20 10:00:13;;;;;;;20.55;6.07;;;24.80;96.00;;;;;;5093780;28;20099;-74
2022/02/20 10:02:42;;;;;;;18.42;6.20;;;25.20;95.90;;;;;;5093432;28;20019;-72
2022/02/20 10:05:20;;;;;;;17.42;6.20;;;25.70;96.90;;;;;;5093234;28;20383;-69
2022/02/20 10:07:50;;;;;;;15.63;5.68;;;25.10;92.60;;;;;;5093728;28;20032;-72
2022/02/20 10:10:27;;;;;;;19.13;6.03;;;25.00;93.00;;;;;;5091826;28;20028;-72
2022/02/20 10:13:00;;;;;;;17.10;6.00;;;24.90;91.30;;;;;;5093627;28;20027;-72
2022/02/20 10:15:29;;;;;;;19.85;5.57;;;24.50;93.20;;;;;;5093791;28;20099;-72
2022/02/20 10:18:10;;;;;;;;;;;23.20;94.50;;;;;;5093953;28;20026;-71
2022/02/20 10:20:36;;;;;;;22.65;5.88;;;21.60;97.50;;;;;;5093294;28;19987;-71
2022/02/20 10:23:07;;;;;;;18.95;6.70;;;20.70;99.90;;;;;;5094940;28;20045;-72
2022/02/20 10:25:33;;;;;;;18.65;5.40;;;20.60;99.90;;;;;;5100297;28;20020;-71
2022/02/20 10:27:58;;;;;;;18.60;5.65;;;20.80;99.90;;;;;;5100053;28;20024;-71
2022/02/20 10:30:26;;;;;;;22.00;6.20;;;21.30;99.90;;;;;;5099957;28;20028;-71
2022/02/20 10:33:22;;;;;;;17.38;5.30;;;21.60;99.70;;;;;;5099866;28;20044;-71
2022/02/20 10:35:50;;;;;;;19.35;6.10;;;22.20;98.80;;;;;;5077970;28;20450;-71
2022/02/20 10:38:18;;;;;;;25.10;6.55;;;21.60;99.40;;;;;;5099856;28;20028;-70
2022/02/20 10:40:47;;;;;;;22.65;5.53;;;21.50;99.60;;;;;;5099808;28;20478;-69
2022/02/20 10:43:24;;;;;;;20.17;5.93;;;21.30;99.70;;;;;;5100104;28;20016;-70
2022/02/20 10:45:50;;;;;;;20.35;6.55;;;20.70;99.90;;;;;;5100364;28;20028;-73
2022/02/20 10:48:19;;;;;;;20.48;6.40;;;20.20;99.90;;;;;;5100034;28;20039;-72
2022/02/20 10:50:56;;;;;;;20.30;6.93;;;19.90;99.90;;;;;;5100043;28;20032;-72
2022/02/20 10:53:29;;;;;;;21.20;6.30;;;20.20;99.90;;;;;;5100302;28;20440;-71
2022/02/20 10:55:55;;;;;;;24.27;6.55;;;20.30;99.90;;;;;;5099603;28;20081;-72
2022/02/20 10:58:28;;;;;;;23.92;6.30;;;20.20;99.90;;;;;;5100024;28;20468;-72
2022/02/20 11:00:56;;;;;;;21.25;6.10;;;20.20;99.90;;;;;;5100049;28;20044;-72
2022/02/20 11:03:24;;;;;;;18.17;5.55;;;19.80;99.90;;;;;;5099635;28;20031;-72
2022/02/20 11:05:51;;;;;;;19.65;5.93;;;20.10;99.90;;;;;;5099448;28;20051;-73
2022/02/20 11:08:23;;;;;;;20.02;5.55;;;19.90;99.90;;;;;;5099555;28;20024;-72
2022/02/20 11:10:50;;;;;;;21.77;5.65;;;19.40;99.90;;;;;;5099819;28;20452;-72
2022/02/20 11:13:17;;;;;;;18.65;5.22;;;18.90;99.90;;;;;;5099552;28;20028;-72
2022/02/20 11:15:45;;;;;;;20.13;5.60;;;18.20;99.90;;;;;;5099459;28;20024;-70
2022/02/20 11:18:14;;;;;;;26.45;6.30;;;18.10;99.90;;;;;;5099535;28;20020;-70
2022/02/20 11:20:43;;;;;;;17.87;5.97;;;18.50;99.90;;;;;;5099520;28;20016;-71
2022/02/20 11:23:09;;;;;;;27.73;5.90;;;19.00;99.90;;;;;;5099681;28;20258;-72
2022/02/20 11:25:37;;;;;;;24.80;6.00;;;19.00;99.90;;;;;;5099418;28;20371;-73
2022/02/20 11:28:04;;;;;;;25.13;8.73;;;18.90;99.90;;;;;;5099683;28;20050;-71
2022/02/20 11:30:30;;;;;;;24.50;6.40;;;19.20;99.90;;;;;;5099402;28;20104;-71
2022/02/20 11:32:59;;;;;;;20.35;6.57;;;19.80;99.90;;;;;;5099359;28;20103;-72
2022/02/20 11:35:26;;;;;;;22.27;5.85;;;19.90;99.90;;;;;;5097556;28;20121;-71
2022/02/20 11:38:03;;;;;;;18.83;5.75;;;19.80;99.90;;;;;;5096408;28;20386;-72
2022/02/20 11:40:31;;;;;;;27.10;5.90;;;19.50;99.90;;;;;;5096152;28;20024;-73
2022/02/20 11:43:00;;;;;;;21.85;6.70;;;19.20;99.90;;;;;;5096326;28;20031;-71
2022/02/20 11:45:30;;;;;;;24.80;6.63;;;18.80;99.90;;;;;;5096236;28;20554;-72
2022/02/20 11:48:07;;;;;;;21.80;6.15;;;18.10;99.90;;;;;;5096323;28;20448;-71
2022/02/20 11:50:37;;;;;;;26.98;6.28;;;17.40;99.90;;;;;;5096213;28;20055;-73
2022/02/20 11:53:04;;;;;;;;;;;16.90;99.90;;;;;;5096636;28;20031;-71
2022/02/20 11:56:05;;;;;;;25.35;6.85;;;16.90;99.90;;;;;;5094420;28;19914;-71
2022/02/20 11:58:31;;;;;;;27.63;7.40;;;16.80;99.90;;;;;;5096067;28;20028;-73
2022/02/20 12:00:58;;;;;;;22.02;6.32;;;16.50;99.90;;;;;;5095703;28;20016;-71
2022/02/20 12:03:43;;;;;;;20.50;5.75;;;16.30;99.90;;;;;;5096210;28;20051;-72
2022/02/20 12:06:17;;;;;;;20.13;6.72;;;15.90;99.90;;;;;;5096257;28;20044;-70
2022/02/20 12:08:42;;;;;;;24.42;6.20;;;15.70;99.90;;;;;;5094042;28;20032;-73
2022/02/20 12:11:20;;;;;;;27.30;7.70;;;15.60;99.90;;;;;;5096028;28;20028;-73
2022/02/20 12:13:47;;;;;;;24.25;7.47;;;15.80;99.90;;;;;;5095750;28;20500;-73
2022/02/20 12:16:26;;;;;;;21.83;5.35;;;15.80;99.90;;;;;;5095611;28;20099;-74
2022/02/20 12:19:04;;;;;;;29.58;7.78;;;15.80;99.90;;;;;;5095639;28;20024;-76
2022/02/20 12:21:34;;;;;;;29.00;6.68;;;16.30;99.90;;;;;;5095280;28;20070;-75
2022/02/20 12:24:17;;;;;;;22.13;5.47;;;16.40;99.90;;;;;;5095296;28;20020;-71
2022/02/20 12:26:57;;;;;;;26.63;6.75;;;16.40;99.90;;;;;;5095215;28;20032;-70
2022/02/20 12:29:24;;;;;;;;;;;16.20;99.90;;;;;;5095955;28;20054;-73
2022/02/20 12:32:17;;;;;;;25.42;8.52;;;15.60;99.90;;;;;;5095142;28;19911;-73
2022/02/20 12:34:51;;;;;;;23.23;7.75;;;15.40;99.90;;;;;;5095536;28;20106;-75
2022/02/20 12:37:37;;;;;;;25.08;6.57;;;15.40;99.90;;;;;;5095537;28;20024;-75
2022/02/20 12:40:16;;;;;;;27.30;6.60;;;15.60;99.90;;;;;;5095697;28;20347;-75
2022/02/20 12:42:54;;;;;;;22.40;6.37;;;15.80;99.90;;;;;;5095429;28;20107;-75